Time;durP1;ratioP1;P1;durP2;ratioP2;P2;SDS_P1;SDS_P2;PMS_P1;PMS_P2;Temp;Humidity;BMP_temperature;BMP_pressure;BME280_temperature;BME280_humidity;BME280_pressure;Samples;Min_cycle;Max_cycle;Signal;HPM_P1;HPM_P2
2023/10/29 00:00:45;;;;;;;37.45;21.80;;;;;;;11.39;100.00;95689.41;5055421;28;20106;-82
2023/10/29 00:03:29;;;;;;;33.38;19.65;;;;;;;11.53;100.00;95710.53;5063695;28;20107;-83
2023/10/29 00:06:13;;;;;;;;;;;;;;;11.57;100.00;95708.91;5058083;28;20501;-81
2023/10/29 00:08:59;;;;;;;31.80;18.60;;;;;;;11.55;100.00;95711.78;5058950;28;19919;-82
2023/10/29 00:11:44;;;;;;;30.50;18.23;;;;;;;11.56;100.00;95710.72;5059752;28;20044;-81
2023/10/29 00:14:28;;;;;;;30.35;19.05;;;;;;;11.58;100.00;95716.47;5060531;28;20082;-81
2023/10/29 00:17:12;;;;;;;30.00;19.27;;;;;;;11.59;100.00;95717.28;5054831;28;20091;-82
2023/10/29 00:19:56;;;;;;;30.10;19.15;;;;;;;11.67;100.00;95721.13;5062778;28;20198;-80
2023/10/29 00:22:40;;;;;;;30.98;20.05;;;;;;;11.62;100.00;95713.31;5066891;28;20059;-81
2023/10/29 00:25:24;;;;;;;35.13;19.77;;;;;;;11.58;100.00;95713.09;5057946;28;20090;-82
2023/10/29 00:28:11;;;;;;;28.42;17.65;;;;;;;11.70;100.00;95715.28;5060599;28;20042;-83
2023/10/29 00:30:55;;;;;;;27.98;17.75;;;;;;;11.71;100.00;95711.59;5060739;28;20098;-82
2023/10/29 00:33:39;;;;;;;28.40;17.95;;;;;;;11.75;100.00;95720.47;5062365;28;20047;-82
2023/10/29 00:36:23;;;;;;;28.60;18.08;;;;;;;11.75;100.00;95712.59;5059400;28;20085;-82
2023/10/29 00:39:07;;;;;;;26.08;18.40;;;;;;;11.72;100.00;95707.91;5057594;28;20099;-81
2023/10/29 00:41:51;;;;;;;29.38;18.77;;;;;;;11.69;100.00;95705.84;5062918;28;20114;-82
2023/10/29 00:44:35;;;;;;;30.38;18.38;;;;;;;11.73;100.00;95709.47;5056925;28;20040;-81
2023/10/29 00:47:20;;;;;;;28.80;18.50;;;;;;;11.74;100.00;95716.28;5064700;28;20064;-82
2023/10/29 00:50:04;;;;;;;28.48;18.05;;;;;;;11.77;100.00;95710.44;5061282;28;20494;-83
2023/10/29 00:52:49;;;;;;;27.63;16.75;;;;;;;11.78;100.00;95706.75;5059414;28;20052;-81
2023/10/29 00:55:35;;;;;;;29.70;18.25;;;;;;;11.73;100.00;95706.84;5056925;28;20106;-81
2023/10/29 00:58:19;;;;;;;34.05;18.67;;;;;;;11.81;100.00;95706.22;5058793;28;20043;-81
2023/10/29 01:01:04;;;;;;;29.58;17.48;;;;;;;11.79;100.00;95695.22;5059199;28;20035;-81
2023/10/29 01:03:48;;;;;;;30.70;19.02;;;;;;;11.78;100.00;95690.22;5058722;28;20036;-82
2023/10/29 01:06:38;;;;;;;29.17;18.35;;;;;;;11.78;100.00;95693.63;5059224;28;20044;-81
2023/10/29 01:09:22;;;;;;;33.38;18.08;;;;;;;11.71;100.00;95698.47;5057596;28;20095;-83
2023/10/29 01:12:15;;;;;;;29.65;17.58;;;;;;;11.66;100.00;95701.94;5062599;28;20398;-82
2023/10/29 01:14:59;;;;;;;33.80;19.15;;;;;;;11.58;100.00;95692.84;5058521;28;20095;-82
2023/10/29 01:17:43;;;;;;;26.98;16.98;;;;;;;11.53;100.00;95694.78;5059050;28;20111;-82
2023/10/29 01:20:27;;;;;;;26.65;17.67;;;;;;;11.49;100.00;95688.50;5060165;28;20036;-82
2023/10/29 01:23:12;;;;;;;27.38;17.95;;;;;;;11.54;100.00;95696.34;5055968;28;20060;-81
2023/10/29 01:25:57;;;;;;;26.13;17.38;;;;;;;11.54;100.00;95686.59;5057064;28;20044;-83
2023/10/29 01:28:41;;;;;;;28.52;16.58;;;;;;;11.66;100.00;95695.91;5064133;28;20426;-82
2023/10/29 01:31:25;;;;;;;27.92;17.73;;;;;;;11.66;100.00;95682.78;5064213;28;20121;-82
2023/10/29 01:34:09;;;;;;;30.98;18.00;;;;;;;11.70;100.00;95683.75;5055268;28;20047;-82
2023/10/29 01:36:53;;;;;;;30.52;18.48;;;;;;;11.71;100.00;95690.59;5057703;28;20501;-82
2023/10/29 01:39:37;;;;;;;37.42;19.10;;;;;;;11.80;100.00;95691.53;5058885;28;20087;-83
2023/10/29 01:42:21;;;;;;;34.58;19.17;;;;;;;11.73;100.00;95685.06;5056346;28;20072;-83
2023/10/29 01:45:05;;;;;;;29.75;17.10;;;;;;;11.76;100.00;95693.13;5063277;28;20109;-82
2023/10/29 01:47:49;;;;;;;32.35;19.38;;;;;;;11.73;100.00;95683.19;5058692;28;20047;-82
2023/10/29 01:50:35;;;;;;;37.55;19.23;;;;;;;11.79;100.00;95691.78;5061461;28;20110;-82
2023/10/29 01:53:19;;;;;;;30.40;18.25;;;;;;;11.82;100.00;95697.25;5056437;28;20498;-81
2023/10/29 01:56:09;;;;;;;34.25;18.13;;;;;;;11.86;100.00;95694.81;5059139;28;20047;-81
2023/10/29 01:58:53;;;;;;;30.90;18.23;;;;;;;11.84;100.00;95695.13;5060488;28;20097;-81
2023/10/29 02:01:37;;;;;;;32.38;17.98;;;;;;;11.74;100.00;95679.50;5063679;28;20085;-81
2023/10/29 02:04:26;;;;;;;35.63;18.75;;;;;;;11.72;100.00;95681.63;5063711;28;20036;-82
2023/10/29 02:07:10;;;;;;;36.92;19.20;;;;;;;11.72;100.00;95689.50;5053741;28;20060;-82
2023/10/29 02:09:54;;;;;;;31.65;19.80;;;;;;;11.70;100.00;95694.28;5058885;28;20448;-83
2023/10/29 02:12:38;;;;;;;35.85;18.15;;;;;;;11.67;100.00;95694.84;5065574;28;21901;-83
2023/10/29 02:15:21;;;;;;;31.55;18.00;;;;;;;11.64;100.00;95695.41;5056506;28;20045;-82
2023/10/29 02:18:06;;;;;;;27.75;16.77;;;;;;;11.53;100.00;95685.03;5063841;28;20043;-81
2023/10/29 02:20:49;;;;;;;26.55;15.98;;;;;;;11.52;100.00;95693.97;5061712;28;20402;-82
2023/10/29 02:23:34;;;;;;;24.10;13.18;;;;;;;11.42;100.00;95696.75;5065005;28;20521;-81
2023/10/29 02:26:18;;;;;;;23.98;12.40;;;;;;;11.11;100.00;95690.03;5061251;28;20044;-82
2023/10/29 02:29:02;;;;;;;16.70;10.50;;;;;;;10.99;100.00;95681.75;5065297;28;20551;-82
2023/10/29 02:31:46;;;;;;;15.40;9.40;;;;;;;10.93;100.00;95696.00;5066830;28;20040;-81
2023/10/29 02:34:30;;;;;;;11.65;7.97;;;;;;;10.89;100.00;95698.41;5063992;28;20122;-82
2023/10/29 02:37:14;;;;;;;19.60;7.63;;;;;;;10.79;100.00;95683.56;5062568;28;20052;-82
2023/10/29 02:39:58;;;;;;;18.23;8.75;;;;;;;10.68;100.00;95692.56;5061710;28;20501;-81
2023/10/29 02:42:42;;;;;;;15.85;8.55;;;;;;;10.71;100.00;95689.41;5064187;28;20063;-83
2023/10/29 02:45:26;;;;;;;19.02;8.05;;;;;;;10.49;100.00;95684.63;5060484;28;20044;-83
2023/10/29 02:48:10;;;;;;;14.20;7.10;;;;;;;10.48;100.00;95680.44;5064070;28;20044;-83
2023/10/29 02:50:54;;;;;;;18.25;7.55;;;;;;;10.50;100.00;95692.22;5062176;28;20075;-83
2023/10/29 02:53:39;;;;;;;21.23;7.57;;;;;;;10.44;100.00;95682.84;5061110;28;20044;-82
2023/10/29 02:56:26;;;;;;;19.65;8.23;;;;;;;10.41;100.00;95699.88;5058027;28;20048;-82
2023/10/29 02:59:10;;;;;;;17.77;7.90;;;;;;;10.47;100.00;95692.00;5062421;28;20043;-82
2023/10/29 03:01:54;;;;;;;21.02;9.98;;;;;;;10.45;100.00;95688.88;5062794;28;20093;-81
2023/10/29 03:04:37;;;;;;;12.80;7.13;;;;;;;10.49;100.00;95685.41;5063416;28;20429;-81
2023/10/29 03:07:22;;;;;;;14.93;7.75;;;;;;;10.56;100.00;95690.31;5065102;28;20036;-81
2023/10/29 03:10:06;;;;;;;17.27;7.55;;;;;;;10.61;100.00;95689.50;5062837;28;20405;-82
2023/10/29 03:12:50;;;;;;;10.98;7.15;;;;;;;10.66;100.00;95686.81;5065434;28;20104;-82
2023/10/29 03:15:34;;;;;;;21.33;8.10;;;;;;;10.69;100.00;95694.13;5061175;28;20044;-82
2023/10/29 03:18:18;;;;;;;10.77;7.07;;;;;;;10.65;100.00;95688.69;5060652;28;20040;-82
2023/10/29 03:21:02;;;;;;;12.55;6.88;;;;;;;10.70;100.00;95696.50;5060125;28;20099;-82
2023/10/29 03:23:46;;;;;;;11.48;6.80;;;;;;;10.61;100.00;95692.94;5061094;28;20039;-82
2023/10/29 03:26:30;;;;;;;14.32;7.10;;;;;;;10.59;100.00;95695.00;5066494;28;20078;-81
2023/10/29 03:29:15;;;;;;;15.43;6.43;;;;;;;10.48;100.00;95686.47;5059361;28;20086;-83
2023/10/29 03:31:59;;;;;;;9.25;5.60;;;;;;;10.65;100.00;95703.63;5060421;28;20509;-81
2023/10/29 03:34:43;;;;;;;11.60;5.72;;;;;;;10.60;100.00;95701.06;5064720;28;20125;-83
2023/10/29 03:37:26;;;;;;;10.00;5.10;;;;;;;10.67;100.00;95707.53;5064368;28;20040;-82
2023/10/29 03:40:10;;;;;;;7.28;4.95;;;;;;;10.66;100.00;95708.59;5060473;28;20071;-81
2023/10/29 03:42:54;;;;;;;7.15;4.53;;;;;;;10.67;100.00;95712.78;5062702;28;20043;-83
2023/10/29 03:45:38;;;;;;;8.90;5.10;;;;;;;10.56;100.00;95712.09;5061355;28;20102;-84
2023/10/29 03:48:22;;;;;;;8.73;4.75;;;;;;;10.53;100.00;95720.53;5062600;28;20047;-83
2023/10/29 03:51:06;;;;;;;8.98;4.43;;;;;;;10.49;100.00;95705.63;5061073;28;20040;-83
2023/10/29 03:53:50;;;;;;;11.23;4.88;;;;;;;10.37;100.00;95691.00;5065336;28;20098;-83
2023/10/29 03:56:34;;;;;;;7.53;3.17;;;;;;;10.32;100.00;95705.97;5063082;28;20042;-85
2023/10/29 03:59:18;;;;;;;6.90;3.13;;;;;;;10.17;100.00;95710.31;5063287;28;20043;-83
2023/10/29 04:02:02;;;;;;;6.90;3.40;;;;;;;9.97;100.00;95705.97;5060976;28;20521;-82
2023/10/29 04:04:46;;;;;;;8.13;3.25;;;;;;;9.92;100.00;95700.78;5061424;28;20506;-84
2023/10/29 04:07:30;;;;;;;8.57;3.00;;;;;;;9.97;100.00;95711.22;5058524;28;20075;-81
2023/10/29 04:10:14;;;;;;;7.30;3.00;;;;;;;9.95;100.00;95715.94;5064326;28;20116;-83
2023/10/29 04:12:58;;;;;;;10.35;2.72;;;;;;;9.90;100.00;95706.28;5059990;28;20097;-83
2023/10/29 04:15:42;;;;;;;7.53;2.88;;;;;;;9.88;100.00;95705.00;5063973;28;20127;-84
2023/10/29 04:18:31;;;;;;;6.95;3.97;;;;;;;9.84;100.00;95715.22;5058592;28;20055;-83
2023/10/29 04:21:15;;;;;;;7.00;3.53;;;;;;;9.77;100.00;95712.16;5065080;28;20047;-83
2023/10/29 04:23:59;;;;;;;12.35;3.90;;;;;;;9.74;100.00;95718.69;5061402;28;20078;-84
2023/10/29 04:26:43;;;;;;;6.75;3.50;;;;;;;9.76;100.00;95713.19;5061671;28;20087;-83
2023/10/29 04:29:27;;;;;;;11.57;3.88;;;;;;;9.74;100.00;95723.94;5062021;28;20414;-82
2023/10/29 04:32:12;;;;;;;6.70;3.22;;;;;;;9.63;100.00;95738.13;5068445;28;20054;-83
2023/10/29 04:34:56;;;;;;;8.88;4.00;;;;;;;9.56;100.00;95728.75;5060267;28;20043;-83
2023/10/29 04:37:40;;;;;;;9.93;3.35;;;;;;;9.53;100.00;95739.75;5059849;28;20394;-83
2023/10/29 04:40:24;;;;;;;6.80;3.50;;;;;;;9.54;100.00;95743.94;5059983;28;20043;-83
2023/10/29 04:43:08;;;;;;;7.10;3.53;;;;;;;9.58;100.00;95739.72;5065122;28;20455;-82
2023/10/29 04:45:52;;;;;;;4.35;3.60;;;;;;;9.52;100.00;95727.72;5057819;28;20040;-82
2023/10/29 04:48:37;;;;;;;10.00;3.72;;;;;;;9.68;100.00;95745.97;5062703;28;20071;-82
2023/10/29 04:51:21;;;;;;;10.88;3.30;;;;;;;9.56;100.00;95728.75;5064395;28;20114;-81
2023/10/29 04:54:06;;;;;;;7.57;2.83;;;;;;;9.58;100.00;95741.56;5062169;28;20403;-83
2023/10/29 04:56:50;;;;;;;5.60;2.97;;;;;;;9.54;100.00;95746.56;5058096;28;20051;-82
2023/10/29 04:59:36;;;;;;;9.90;2.60;;;;;;;9.58;100.00;95747.56;5064329;28;20090;-82
2023/10/29 05:02:22;;;;;;;5.85;2.85;;;;;;;9.64;100.00;95760.66;5062968;28;20148;-82
2023/10/29 05:05:10;;;;;;;9.52;2.53;;;;;;;9.54;100.00;95746.56;5063340;28;20402;-80
2023/10/29 05:07:54;;;;;;;6.75;2.40;;;;;;;9.46;100.00;95754.19;5059155;28;20101;-82
2023/10/29 05:10:38;;;;;;;6.07;2.65;;;;;;;9.61;100.00;95766.41;5066118;28;20165;-81
2023/10/29 05:13:22;;;;;;;6.28;2.30;;;;;;;9.45;100.00;95769.13;5060184;28;20080;-82
2023/10/29 05:16:07;;;;;;;4.55;2.40;;;;;;;9.51;100.00;95768.03;5063422;28;20097;-82
2023/10/29 05:18:51;;;;;;;6.63;2.70;;;;;;;9.43;100.00;95777.22;5062916;28;20047;-81
2023/10/29 05:21:35;;;;;;;8.20;2.35;;;;;;;9.62;100.00;95783.69;5061762;28;20043;-83
2023/10/29 05:24:20;;;;;;;10.48;3.30;;;;;;;9.56;100.00;95788.19;5058726;28;20044;-83
2023/10/29 05:27:05;;;;;;;4.80;2.50;;;;;;;9.51;100.00;95783.75;5057777;28;20052;-83
2023/10/29 05:29:49;;;;;;;8.38;2.42;;;;;;;9.43;100.00;95797.38;5058458;28;20390;-83
2023/10/29 05:32:33;;;;;;;9.52;2.67;;;;;;;9.33;100.00;95803.44;5061216;28;20095;-82
2023/10/29 05:35:17;;;;;;;5.43;2.85;;;;;;;9.38;100.00;95810.50;5056596;28;20481;-82
2023/10/29 05:38:01;;;;;;;8.80;2.13;;;;;;;9.27;100.00;95794.81;5060022;28;20117;-83
2023/10/29 05:40:45;;;;;;;9.45;2.35;;;;;;;9.25;100.00;95802.16;5057203;28;20130;-84
2023/10/29 05:43:29;;;;;;;5.10;2.25;;;;;;;9.33;100.00;95818.38;5058389;28;20098;-82
2023/10/29 05:46:14;;;;;;;10.10;2.67;;;;;;;9.38;100.00;95807.88;5061276;28;20052;-83
2023/10/29 05:48:59;;;;;;;5.50;2.65;;;;;;;9.38;100.00;95811.28;5062739;28;20067;-83
2023/10/29 05:51:43;;;;;;;6.13;2.47;;;;;;;9.38;100.00;95815.72;5059189;28;20509;-82
2023/10/29 05:54:28;;;;;;;9.02;2.90;;;;;;;9.41;100.00;95821.22;5063990;28;20046;-82
2023/10/29 05:57:12;;;;;;;6.10;2.85;;;;;;;9.25;100.00;95817.88;5062880;28;20062;-82
2023/10/29 05:59:57;;;;;;;3.80;2.30;;;;;;;9.13;100.00;95815.50;5066391;28;20047;-82
2023/10/29 06:02:41;;;;;;;12.85;3.05;;;;;;;9.08;100.00;95835.69;5057479;28;20043;-83
2023/10/29 06:05:25;;;;;;;5.20;2.72;;;;;;;9.19;100.00;95839.84;5061037;28;20087;-81
2023/10/29 06:08:09;;;;;;;7.30;2.55;;;;;;;9.23;100.00;95850.56;5065129;28;20043;-81
2023/10/29 06:10:53;;;;;;;9.05;2.80;;;;;;;9.05;100.00;95844.06;5059601;28;20575;-82
2023/10/29 06:13:36;;;;;;;7.65;3.33;;;;;;;9.09;100.00;95864.19;5063529;28;20047;-83
2023/10/29 06:16:20;;;;;;;11.52;3.05;;;;;;;9.09;100.00;95866.81;5064341;28;20104;-82
2023/10/29 06:19:04;;;;;;;9.55;3.13;;;;;;;9.03;100.00;95864.44;5064918;28;20049;-82
2023/10/29 06:21:49;;;;;;;7.95;3.05;;;;;;;9.07;100.00;95879.38;5063649;28;20578;-83
2023/10/29 06:24:34;;;;;;;6.13;2.20;;;;;;;9.06;100.00;95882.25;5060566;28;20089;-82
2023/10/29 06:27:18;;;;;;;6.65;2.63;;;;;;;9.06;100.00;95877.81;5064420;28;20167;-82
2023/10/29 06:30:02;;;;;;;7.57;2.75;;;;;;;9.06;100.00;95869.94;5062383;28;20102;-82
2023/10/29 06:32:46;;;;;;;7.30;2.78;;;;;;;9.03;100.00;95885.38;5066273;28;20059;-82
2023/10/29 06:35:30;;;;;;;10.93;2.65;;;;;;;9.03;100.00;95885.38;5067109;28;20036;-82
2023/10/29 06:38:14;;;;;;;14.43;3.50;;;;;;;9.02;100.00;95894.28;5068714;28;20408;-82
2023/10/29 06:40:58;;;;;;;6.97;3.10;;;;;;;8.94;100.00;95885.13;5066417;28;20098;-82
2023/10/29 06:43:42;;;;;;;10.77;2.83;;;;;;;8.94;100.00;95898.19;5067215;28;20128;-82
2023/10/29 06:46:26;;;;;;;10.40;3.13;;;;;;;8.97;100.00;95902.94;5066720;28;20418;-82
2023/10/29 06:49:11;;;;;;;7.38;2.70;;;;;;;8.92;100.00;95910.75;5072711;28;20043;-82
2023/10/29 06:51:55;;;;;;;7.82;3.05;;;;;;;8.90;100.00;95911.03;5059753;28;20119;-82
2023/10/29 06:54:40;;;;;;;14.60;3.97;;;;;;;8.85;100.00;95901.34;5067282;28;20048;-82
2023/10/29 06:57:24;;;;;;;8.38;3.33;;;;;;;9.01;100.00;95917.06;5063332;28;20036;-83
2023/10/29 07:00:09;;;;;;;11.70;3.78;;;;;;;8.90;100.00;95913.66;5062232;28;20071;-81
2023/10/29 07:02:54;;;;;;;12.32;3.10;;;;;;;8.92;100.00;95898.47;5058376;28;20101;-83
2023/10/29 07:05:38;;;;;;;15.25;3.92;;;;;;;8.89;100.00;95899.00;5058238;28;20472;-83
2023/10/29 07:08:22;;;;;;;9.82;3.50;;;;;;;8.98;100.00;95918.34;5057823;28;20044;-83
2023/10/29 07:11:06;;;;;;;14.15;3.78;;;;;;;9.00;100.00;95911.03;5056191;28;20039;-82
2023/10/29 07:13:52;;;;;;;9.88;2.92;;;;;;;8.95;100.00;95911.03;5060302;28;20541;-83
2023/10/29 07:16:37;;;;;;;7.35;2.90;;;;;;;9.08;100.00;95927.25;5057212;28;20449;-80
2023/10/29 07:19:22;;;;;;;8.32;2.92;;;;;;;9.03;100.00;95908.94;5062011;28;20035;-79
2023/10/29 07:22:06;;;;;;;8.45;2.85;;;;;;;9.00;100.00;95916.25;5062490;28;20140;-78
2023/10/29 07:24:49;;;;;;;9.80;2.53;;;;;;;8.93;100.00;95915.75;5061026;28;20036;-79
2023/10/29 07:27:33;;;;;;;13.35;3.30;;;;;;;9.05;100.00;95925.94;5059930;28;20116;-79
2023/10/29 07:30:17;;;;;;;11.25;2.88;;;;;;;9.08;100.00;95933.25;5066929;28;20047;-79
2023/10/29 07:33:01;;;;;;;12.57;2.90;;;;;;;9.03;100.00;95929.84;5060592;28;20514;-80
2023/10/29 07:35:46;;;;;;;9.75;3.42;;;;;;;9.03;100.00;95940.31;5067323;28;20094;-80
2023/10/29 07:38:30;;;;;;;11.52;4.60;;;;;;;9.10;100.00;95943.47;5063330;28;20132;-81
2023/10/29 07:41:19;;;;;;;8.55;3.63;;;;;;;9.09;100.00;95944.53;5058974;28;20090;-86
2023/10/29 07:44:03;;;;;;;13.65;4.30;;;;;;;9.11;100.00;95948.44;5068648;28;20036;-81
2023/10/29 07:46:48;;;;;;;12.60;5.13;;;;;;;9.06;100.00;95937.22;5065460;28;20410;-83
2023/10/29 07:49:32;;;;;;;11.70;3.95;;;;;;;9.22;100.00;95949.22;5060923;28;20063;-84
2023/10/29 07:52:16;;;;;;;12.18;4.35;;;;;;;9.14;100.00;95936.66;5057720;28;20048;-83
2023/10/29 07:55:10;;;;;;;15.77;4.30;;;;;;;9.17;100.00;95957.09;5059666;28;20504;-82
2023/10/29 07:57:54;;;;;;;11.98;4.00;;;;;;;9.30;100.00;95958.38;5060239;28;20417;-82
2023/10/29 08:00:38;;;;;;;17.35;5.28;;;;;;;9.24;100.00;95970.72;5059452;28;20048;-81
2023/10/29 08:03:23;;;;;;;8.77;4.10;;;;;;;9.24;100.00;95962.06;5063378;28;20037;-83
2023/10/29 08:06:07;;;;;;;11.85;4.32;;;;;;;9.13;100.00;95948.97;5066704;28;20090;-81
2023/10/29 08:08:52;;;;;;;9.50;4.22;;;;;;;9.35;100.00;95973.31;5058427;28;20047;-80
2023/10/29 08:11:37;;;;;;;10.02;4.13;;;;;;;9.49;100.00;95990.06;5059549;28;20093;-83
2023/10/29 08:14:21;;;;;;;14.95;4.38;;;;;;;9.43;100.00;95988.47;5069873;28;20094;-83
2023/10/29 08:17:06;;;;;;;16.10;3.70;;;;;;;9.51;100.00;95977.50;5060290;28;20138;-83
2023/10/29 08:19:50;;;;;;;9.43;3.45;;;;;;;9.60;100.00;95997.91;5059427;28;20059;-83
2023/10/29 08:22:34;;;;;;;8.63;3.97;;;;;;;9.67;100.00;95988.72;5064390;28;21622;-84
2023/10/29 08:25:18;;;;;;;10.25;3.72;;;;;;;9.89;100.00;95997.34;5060899;28;20521;-83
2023/10/29 08:28:03;;;;;;;8.25;2.90;;;;;;;9.91;100.00;96003.88;5063411;28;20753;-83
2023/10/29 08:30:47;;;;;;;10.48;3.25;;;;;;;9.92;100.00;95996.81;5062824;28;20103;-83
2023/10/29 08:33:31;;;;;;;8.63;3.83;;;;;;;9.95;100.00;96012.81;5057612;28;20055;-83
2023/10/29 08:36:16;;;;;;;10.02;3.08;;;;;;;10.08;100.00;95998.38;5061391;28;20102;-83
2023/10/29 08:39:01;;;;;;;12.98;3.42;;;;;;;10.18;100.00;96012.47;5061553;28;20078;-86
2023/10/29 08:41:45;;;;;;;10.73;3.40;;;;;;;10.20;100.00;96013.00;5066992;28;20058;-84
2023/10/29 08:44:34;;;;;;;11.88;3.47;;;;;;;10.40;100.00;96018.19;5064756;28;20048;-83
2023/10/29 08:47:18;;;;;;;8.55;3.63;;;;;;;10.41;100.00;96000.66;5060331;28;20075;-84
2023/10/29 08:50:03;;;;;;;11.93;3.20;;;;;;;10.45;100.00;95998.28;5062515;28;20059;-87
2023/10/29 08:52:47;;;;;;;11.20;3.13;;;;;;;10.60;100.00;96005.28;5060511;28;20154;-82
2023/10/29 08:55:34;;;;;;;12.43;3.38;;;;;;;10.65;100.00;96003.44;5055622;28;20118;-84
2023/10/29 08:58:20;;;;;;;9.80;3.75;;;;;;;10.76;100.00;96013.88;5062365;28;20084;-86
2023/10/29 09:01:11;;;;;;;15.07;4.00;;;;;;;10.73;100.00;96004.72;5058174;28;20063;-84
2023/10/29 09:03:55;;;;;;;11.18;3.20;;;;;;;10.82;100.00;95997.06;5059477;28;20520;-84
2023/10/29 09:06:39;;;;;;;6.40;2.70;;;;;;;10.90;100.00;95999.09;5058156;28;20043;-84
2023/10/29 09:09:23;;;;;;;7.95;2.65;;;;;;;11.05;100.00;96000.84;5061635;28;20055;-84
2023/10/29 09:12:07;;;;;;;7.80;3.42;;;;;;;11.05;100.00;96013.19;5055769;28;20075;-85
2023/10/29 09:14:51;;;;;;;10.98;2.63;;;;;;;11.23;100.00;96038.00;5065113;28;20048;-84
2023/10/29 09:17:35;;;;;;;11.13;2.97;;;;;;;11.20;100.00;96028.06;5056655;28;20478;-85
2023/10/29 09:20:19;;;;;;;6.45;3.33;;;;;;;11.29;100.00;96035.06;5055707;28;20043;-83
2023/10/29 09:23:04;;;;;;;8.02;3.20;;;;;;;11.26;100.00;96042.72;5056405;28;20402;-83
2023/10/29 09:25:49;;;;;;;10.75;3.30;;;;;;;11.49;100.00;96051.75;5053995;28;20075;-85
2023/10/29 09:28:34;;;;;;;14.10;3.45;;;;;;;11.59;100.00;96045.63;5055620;28;20406;-85
2023/10/29 09:31:18;;;;;;;8.65;4.25;;;;;;;11.66;100.00;96061.09;5064835;28;20123;-85
2023/10/29 09:34:03;;;;;;;9.90;3.10;;;;;;;11.65;100.00;96059.53;5063159;28;20395;-86
2023/10/29 09:36:47;;;;;;;9.25;3.42;;;;;;;11.58;100.00;96052.72;5064490;28;20406;-85
2023/10/29 09:39:32;;;;;;;5.78;2.80;;;;;;;11.47;100.00;96053.06;5058959;28;20066;-87
2023/10/29 09:42:18;;;;;;;8.50;3.35;;;;;;;11.46;100.00;96049.69;5063738;28;20095;-84
2023/10/29 09:45:05;;;;;;;12.40;3.92;;;;;;;11.66;100.00;96071.59;5062351;28;20071;-87
2023/10/29 09:47:52;;;;;;;11.80;3.60;;;;;;;11.48;100.00;96059.88;5057187;28;20075;-88
2023/10/29 09:50:37;;;;;;;12.45;3.83;;;;;;;11.35;100.00;96056.03;5061618;28;20036;-85
2023/10/29 09:53:23;;;;;;;9.75;3.92;;;;;;;11.36;100.00;96076.00;5059639;28;20043;-86
2023/10/29 09:56:08;;;;;;;8.88;3.60;;;;;;;11.37;100.00;96054.72;5064644;28;20050;-86
2023/10/29 09:58:52;;;;;;;8.52;4.20;;;;;;;11.44;100.00;96064.94;5064163;28;20116;-85
2023/10/29 10:01:36;;;;;;;13.15;4.03;;;;;;;11.36;100.00;96050.53;5060988;28;20040;-86
2023/10/29 10:04:20;;;;;;;12.13;4.45;;;;;;;11.48;100.00;96050.19;5061255;28;20087;-84
2023/10/29 10:07:05;;;;;;;9.10;3.78;;;;;;;11.47;100.00;96053.06;5061418;28;20040;-88
2023/10/29 10:09:51;;;;;;;11.85;3.88;;;;;;;11.49;100.00;96051.75;5064353;28;20055;-85
2023/10/29 10:12:48;;;;;;;12.85;3.97;;;;;;;11.56;100.00;96065.34;5062426;28;20174;-85
2023/10/29 10:15:33;;;;;;;11.00;3.30;;;;;;;11.61;100.00;96063.75;5062441;28;20090;-85
2023/10/29 10:18:17;;;;;;;7.78;3.70;;;;;;;11.65;100.00;96065.53;5063512;28;20547;-85
2023/10/29 10:21:00;;;;;;;8.13;3.03;;;;;;;11.53;100.00;96058.03;5064126;28;20043;-84
2023/10/29 10:23:51;;;;;;;11.07;3.70;;;;;;;11.68;100.00;96072.09;5059535;28;20078;-85
2023/10/29 10:26:36;;;;;;;11.43;3.00;;;;;;;11.66;100.00;96067.09;5058453;28;20087;-85
2023/10/29 10:29:31;;;;;;;6.97;3.35;;;;;;;11.79;100.00;96068.34;5062051;28;20118;-85
2023/10/29 10:32:24;;;;;;;9.50;3.10;;;;;;;11.82;100.00;96067.78;5058102;28;20047;-85
2023/10/29 10:35:08;;;;;;;7.70;2.90;;;;;;;11.88;100.00;96078.25;5057155;28;20521;-85
2023/10/29 10:37:56;;;;;;;7.93;3.22;;;;;;;12.03;100.00;96080.00;5061107;28;20063;-86
2023/10/29 10:40:40;;;;;;;10.48;2.63;;;;;;;12.19;100.00;96073.53;5055857;28;20063;-86
2023/10/29 10:43:26;;;;;;;9.30;3.08;;;;;;;12.16;100.00;96066.19;5063561;28;20047;-87
2023/10/29 10:46:16;;;;;;;12.10;3.15;;;;;;;12.51;100.00;96089.78;5061474;28;20505;-87
2023/10/29 10:49:01;;;;;;;9.20;2.97;;;;;;;12.75;100.00;96087.16;5064104;28;20405;-87
2023/10/29 10:51:47;;;;;;;8.23;3.50;;;;;;;12.67;100.00;96053.53;5065549;28;20087;-84
2023/10/29 10:54:31;;;;;;;7.43;2.65;;;;;;;13.08;100.00;96087.28;5059763;28;20036;-86
2023/10/29 10:57:16;;;;;;;9.65;2.80;;;;;;;13.27;100.00;96094.41;5057952;28;20223;-85
2023/10/29 11:00:05;;;;;;;12.18;3.28;;;;;;;13.49;100.00;96101.75;5062721;28;20048;-85
2023/10/29 11:02:50;;;;;;;10.93;2.30;;;;;;;13.51;100.00;96109.38;5068067;28;20090;-85
2023/10/29 11:05:34;;;;;;;10.43;3.00;;;;;;;13.50;100.00;96110.47;5063988;28;20544;-86
2023/10/29 11:08:18;;;;;;;8.68;2.50;;;;;;;13.57;100.00;96109.03;5060193;28;20186;-86
2023/10/29 11:11:05;;;;;;;12.40;3.00;;;;;;;13.61;100.00;96113.72;5065255;28;20040;-86
2023/10/29 11:13:50;;;;;;;11.57;2.60;;;;;;;13.53;100.00;96113.28;5061091;28;20039;-84
2023/10/29 11:16:44;;;;;;;10.32;2.75;;;;;;;13.70;100.00;96122.53;5060976;28;20120;-87
2023/10/29 11:19:51;;;;;;;7.03;3.00;;;;;;;13.64;100.00;96128.97;5063421;28;20044;-85
2023/10/29 11:22:47;;;;;;;11.13;2.67;;;;;;;13.74;100.00;96123.53;5067744;28;20140;-85
2023/10/29 11:25:31;;;;;;;9.80;3.15;;;;;;;13.77;100.00;96112.44;5068504;28;20071;-86
2023/10/29 11:28:24;;;;;;;6.82;2.47;;;;;;;13.84;100.00;96115.47;5059969;28;20103;-85
2023/10/29 11:31:13;;;;;;;6.32;2.42;;;;;;;13.98;100.00;96125.28;5066818;28;20067;-87
2023/10/29 11:33:57;;;;;;;10.52;2.85;;;;;;;14.07;100.00;96114.88;5065306;28;20108;-87
2023/10/29 11:36:42;;;;;;;12.57;2.83;;;;;;;14.09;100.00;96115.34;5069089;28;20537;-85
2023/10/29 11:39:31;;;;;;;5.93;2.50;;;;;;;14.23;100.00;96120.66;5067461;28;20077;-83
2023/10/29 11:42:27;;;;;;;10.77;2.17;;;;;;;14.05;100.00;96101.97;5056148;28;20071;-87
2023/10/29 11:45:30;;;;;;;5.65;2.45;;;;;;;14.19;100.00;96117.03;5060250;28;20736;-87
2023/10/29 11:48:16;;;;;;;7.47;2.13;;;;;;;14.19;100.00;96119.69;5062360;28;20051;-85
2023/10/29 11:51:05;;;;;;;8.98;2.60;;;;;;;14.18;100.00;96115.47;5056568;28;20040;-87
2023/10/29 11:53:50;;;;;;;10.00;2.35;;;;;;;14.15;100.00;96111.56;5066515;28;20556;-87
2023/10/29 11:56:36;;;;;;;6.45;2.08;;;;;;;14.40;100.00;96112.97;5063011;28;20086;-86
2023/10/29 11:59:20;;;;;;;6.40;2.35;;;;;;;14.31;100.00;96114.69;5060057;28;20465;-87
2023/10/29 12:02:04;;;;;;;4.05;2.22;;;;;;;14.33;100.00;96104.63;5064184;28;20039;-85
2023/10/29 12:04:49;;;;;;;6.70;2.10;;;;;;;14.32;100.00;96111.00;5056455;28;20039;-86
2023/10/29 12:07:33;;;;;;;7.45;2.40;;;;;;;14.47;100.00;96117.06;5058925;28;20123;-85
2023/10/29 12:10:17;;;;;;;12.68;2.05;;;;;;;14.43;100.00;96117.66;5062743;28;20497;-85
2023/10/29 12:13:01;;;;;;;6.57;2.63;;;;;;;14.43;100.00;96101.84;5057529;28;20094;-84
2023/10/29 12:15:56;;;;;;;8.13;1.95;;;;;;;14.67;100.00;96108.78;5064152;28;20090;-84
2023/10/29 12:18:41;;;;;;;11.98;3.40;;;;;;;14.59;100.00;96121.88;5058657;28;20130;-83
2023/10/29 12:21:25;;;;;;;12.27;2.60;;;;;;;14.30;100.00;96102.59;5065482;28;20043;-86
2023/10/29 12:24:09;;;;;;;12.63;2.83;;;;;;;14.37;100.00;96118.84;5057551;28;20039;-85
2023/10/29 12:26:53;;;;;;;6.10;1.88;;;;;;;14.44;100.00;96126.34;5066357;28;20043;-84
2023/10/29 12:29:37;;;;;;;9.40;2.95;;;;;;;14.48;100.00;96118.66;5054884;28;20044;-81
2023/10/29 12:32:26;;;;;;;8.75;2.20;;;;;;;14.57;100.00;96117.66;5058776;28;20039;-80
2023/10/29 12:35:10;;;;;;;6.72;2.35;;;;;;;14.54;100.00;96128.03;5052784;28;20155;-82
2023/10/29 12:37:55;;;;;;;12.35;2.20;;;;;;;14.65;100.00;96124.13;5051572;28;20060;-82
2023/10/29 12:41:14;;;;;;;11.57;2.30;;;;;;;14.50;100.00;96132.31;5058803;28;20099;-83
2023/10/29 12:43:59;;;;;;;13.52;3.38;;;;;;;14.28;100.00;96131.91;5058929;28;20044;-83